createdAt,value
2023-02-23T00:02:20.047Z,69.17
2023-02-23T00:04:48.282Z,68.37
2023-02-23T00:07:20.162Z,68.30
2023-02-23T00:09:48.078Z,68.48
2023-02-23T00:12:17.450Z,68.24
2023-02-23T00:14:45.463Z,68.19
2023-02-23T00:17:14.972Z,68.38
2023-02-23T00:19:44.110Z,69.14
2023-02-23T00:22:12.948Z,69.30
2023-02-23T00:24:43.063Z,68.79
2023-02-23T00:27:17.944Z,68.86
2023-02-23T00:29:49.589Z,68.72
2023-02-23T00:32:21.185Z,69.41
2023-02-23T00:34:52.597Z,69.26
2023-02-23T00:37:23.288Z,69.08
2023-02-23T00:39:52.322Z,69.06
2023-02-23T00:42:20.627Z,67.97
2023-02-23T00:44:49.545Z,68.68
2023-02-23T00:47:17.582Z,68.79
2023-02-23T00:49:45.663Z,69.19
2023-02-23T00:52:14.874Z,69.15
2023-02-23T00:54:42.875Z,69.01
2023-02-23T00:57:10.892Z,68.48
2023-02-23T00:59:38.743Z,69.71
2023-02-23T01:02:07.415Z,69.02
2023-02-23T01:04:35.360Z,69.54
2023-02-23T01:07:06.630Z,69.07
2023-02-23T01:09:34.624Z,69.87
2023-02-23T01:12:07.817Z,70.38
2023-02-23T01:14:38.258Z,70.37
2023-02-23T01:17:07.723Z,69.34
2023-02-23T01:19:37.680Z,69.96
2023-02-23T01:22:05.771Z,69.18
2023-02-23T01:24:33.743Z,70.30
2023-02-23T01:27:05.462Z,69.69
2023-02-23T01:29:34.859Z,69.48
2023-02-23T01:32:04.703Z,69.64
2023-02-23T01:34:33.071Z,70.47
2023-02-23T01:37:01.071Z,70.40
2023-02-23T01:39:29.862Z,71.18
2023-02-23T01:41:57.718Z,71.84
2023-02-23T01:44:25.752Z,72.32
2023-02-23T01:46:53.666Z,72.36
2023-02-23T01:49:28.746Z,71.25
2023-02-23T01:52:11.218Z,71.31
2023-02-23T01:54:44.551Z,71.58
2023-02-23T01:57:15.077Z,70.47
2023-02-23T01:59:44.055Z,69.88
2023-02-23T02:02:13.609Z,70.23
2023-02-23T02:04:46.060Z,70.08
2023-02-23T02:07:23.019Z,69.75
2023-02-23T02:10:12.903Z,70.20
2023-02-23T02:12:44.707Z,70.73
2023-02-23T02:15:20.071Z,70.53
2023-02-23T02:18:18.859Z,69.54
2023-02-23T02:21:14.338Z,69.43
2023-02-23T02:24:00.999Z,69.43
2023-02-23T02:26:53.957Z,70.25
2023-02-23T02:29:51.503Z,70.24
2023-02-23T02:32:39.632Z,69.33
2023-02-23T02:35:07.753Z,70.31
2023-02-23T02:37:50.431Z,70.41
2023-02-23T02:40:24.301Z,71.18
2023-02-23T02:43:11.407Z,70.81
2023-02-23T02:45:39.246Z,71.00
2023-02-23T02:48:20.980Z,70.69
2023-02-23T02:50:51.609Z,70.25
2023-02-23T02:53:45.378Z,70.59
2023-02-23T02:57:59.378Z,70.90
2023-02-23T03:00:56.761Z,70.94
2023-02-23T03:03:54.111Z,70.62
2023-02-23T03:07:01.862Z,70.42
2023-02-23T03:10:14.571Z,70.97
2023-02-23T03:13:16.902Z,70.58
2023-02-23T03:16:39.710Z,70.42
2023-02-23T03:19:41.653Z,70.46
2023-02-23T03:22:51.380Z,69.86
2023-02-23T03:25:43.114Z,70.60
2023-02-23T03:28:36.242Z,71.51
2023-02-23T03:31:52.248Z,72.47
2023-02-23T03:34:51.830Z,72.11
2023-02-23T03:37:43.265Z,71.72
2023-02-23T03:40:37.674Z,70.96
2023-02-23T03:43:32.511Z,71.17
2023-02-23T03:46:21.951Z,70.44
2023-02-23T03:49:09.819Z,69.51
2023-02-23T03:51:59.545Z,70.39
2023-02-23T03:54:53.529Z,70.45
2023-02-23T03:57:44.819Z,69.98
2023-02-23T04:00:38.797Z,69.86
2023-02-23T04:03:26.907Z,70.44
2023-02-23T04:06:16.064Z,69.89
2023-02-23T04:09:03.090Z,70.88
2023-02-23T04:12:06.049Z,70.43
2023-02-23T04:14:40.307Z,70.85
2023-02-23T04:17:09.743Z,70.91
2023-02-23T04:19:37.786Z,70.73
2023-02-23T04:22:05.845Z,70.66
2023-02-23T04:24:33.910Z,70.95
2023-02-23T04:27:03.122Z,70.86
2023-02-23T04:29:31.072Z,71.95
2023-02-23T04:31:59.253Z,71.79
2023-02-23T04:34:27.108Z,71.75
2023-02-23T04:36:55.093Z,72.44
2023-02-23T04:39:22.972Z,72.71
2023-02-23T04:41:51.137Z,72.60
2023-02-23T04:44:19.045Z,73.43
2023-02-23T04:46:46.987Z,72.80
2023-02-23T04:49:14.902Z,72.10
2023-02-23T04:51:42.864Z,72.32
2023-02-23T04:54:10.923Z,72.09
2023-02-23T04:56:39.671Z,72.79
2023-02-23T04:59:07.676Z,72.44
2023-02-23T05:01:37.393Z,72.73
2023-02-23T05:04:05.507Z,72.60
2023-02-23T05:06:33.747Z,72.68
2023-02-23T05:09:03.404Z,73.07
2023-02-23T05:11:31.311Z,72.37
2023-02-23T05:13:59.388Z,72.05
2023-02-23T05:16:27.914Z,71.73
2023-02-23T05:18:56.012Z,71.00
2023-02-23T05:21:23.902Z,70.79
2023-02-23T05:23:51.850Z,70.71
2023-02-23T05:26:20.369Z,71.02
2023-02-23T05:28:49.089Z,70.71
2023-02-23T05:31:17.932Z,71.40
2023-02-23T05:33:46.057Z,71.70
2023-02-23T05:36:17.791Z,71.04
2023-02-23T05:38:46.706Z,71.06
2023-02-23T05:41:20.983Z,71.46
2023-02-23T05:43:52.591Z,71.03
2023-02-23T05:46:25.898Z,71.33
2023-02-23T05:48:59.431Z,72.40
2023-02-23T05:51:29.139Z,71.66
2023-02-23T05:53:57.267Z,71.70
2023-02-23T05:56:26.600Z,71.34
2023-02-23T05:58:55.789Z,71.73
2023-02-23T06:01:23.859Z,70.95
2023-02-23T06:03:52.425Z,71.77
2023-02-23T06:06:20.714Z,71.48
2023-02-23T06:08:50.069Z,72.12
2023-02-23T06:11:18.368Z,72.36
2023-02-23T06:13:46.517Z,71.65
2023-02-23T06:16:14.708Z,71.11
2023-02-23T06:18:42.690Z,70.76
2023-02-23T06:21:10.874Z,70.71
2023-02-23T06:23:39.222Z,70.32
2023-02-23T06:26:07.970Z,71.46
2023-02-23T06:28:36.758Z,71.26
2023-02-23T06:31:04.751Z,71.13
2023-02-23T06:33:32.757Z,70.51
2023-02-23T06:36:01.050Z,70.85
2023-02-23T06:38:29.653Z,70.07
2023-02-23T06:40:57.680Z,70.54
2023-02-23T06:43:25.744Z,71.21
2023-02-23T06:45:53.865Z,71.86
2023-02-23T06:48:21.664Z,71.58
2023-02-23T06:50:49.565Z,71.72
2023-02-23T06:53:18.576Z,71.01
2023-02-23T06:55:46.898Z,71.01
2023-02-23T06:58:14.788Z,70.53
2023-02-23T07:00:43.900Z,70.77
2023-02-23T07:03:12.014Z,71.57
2023-02-23T07:05:40.915Z,71.42
2023-02-23T07:08:09.043Z,71.28
2023-02-23T07:10:37.224Z,70.76
2023-02-23T07:13:05.149Z,70.13
2023-02-23T07:15:33.161Z,69.24
2023-02-23T07:18:01.233Z,69.65
2023-02-23T07:20:29.151Z,70.33
2023-02-23T07:22:57.819Z,70.80
2023-02-23T07:25:25.717Z,70.42
2023-02-23T07:27:54.517Z,69.95
2023-02-23T07:30:25.615Z,68.64
2023-02-23T07:32:54.267Z,69.94
2023-02-23T07:35:22.381Z,69.13
2023-02-23T07:37:50.365Z,68.73
2023-02-23T07:40:19.676Z,68.41
2023-02-23T07:42:47.469Z,69.15
2023-02-23T07:45:15.345Z,67.86
2023-02-23T07:47:44.791Z,68.11
2023-02-23T07:50:14.249Z,67.35
2023-02-23T07:52:43.933Z,67.18
2023-02-23T07:55:12.590Z,59.33
2023-02-23T07:57:40.492Z,50.39
2023-02-23T08:00:09.212Z,44.14
2023-02-23T08:02:44.072Z,38.82
2023-02-23T08:05:13.154Z,36.16
2023-02-23T08:07:41.064Z,34.61
2023-02-23T08:10:09.885Z,34.50
2023-02-23T08:12:38.218Z,33.34
2023-02-23T08:15:09.700Z,33.95
2023-02-23T08:17:39.066Z,34.06
2023-02-23T08:20:08.908Z,33.64
2023-02-23T08:22:48.431Z,33.89
2023-02-23T08:25:18.659Z,34.70
2023-02-23T08:27:47.325Z,35.06
2023-02-23T08:30:15.782Z,35.22
2023-02-23T08:32:43.845Z,35.81
2023-02-23T08:35:12.256Z,36.33
2023-02-23T08:37:42.084Z,36.38
2023-02-23T08:40:11.736Z,35.80
2023-02-23T08:42:39.807Z,35.72
2023-02-23T08:45:08.741Z,35.22
2023-02-23T08:47:37.216Z,33.32
2023-02-23T08:50:05.573Z,33.63
2023-02-23T08:52:34.319Z,31.56
2023-02-23T08:55:02.502Z,29.79
2023-02-23T08:57:33.772Z,29.39
2023-02-23T09:00:02.436Z,28.91
2023-02-23T09:02:30.664Z,27.56
2023-02-23T09:04:59.584Z,27.70
2023-02-23T09:07:27.621Z,26.15
2023-02-23T09:09:56.876Z,26.61
2023-02-23T09:12:25.430Z,27.07
2023-02-23T09:14:54.037Z,25.38
2023-02-23T09:17:23.298Z,24.91
2023-02-23T09:19:51.963Z,24.68
2023-02-23T09:22:20.077Z,24.60
2023-02-23T09:24:48.229Z,24.09
2023-02-23T09:27:16.045Z,24.42
2023-02-23T09:29:44.723Z,24.90
2023-02-23T09:32:12.915Z,25.05
2023-02-23T09:34:40.870Z,26.01
2023-02-23T09:37:08.905Z,25.81
2023-02-23T09:39:38.829Z,26.38
2023-02-23T09:42:16.166Z,28.23
2023-02-23T09:44:50.168Z,28.84
2023-02-23T09:47:50.964Z,28.94
2023-02-23T09:50:25.818Z,29.10
2023-02-23T09:53:14.640Z,27.17
2023-02-23T09:55:44.065Z,24.17
2023-02-23T09:58:23.828Z,24.32
2023-02-23T10:01:07.084Z,24.24
2023-02-23T10:03:40.618Z,24.50
2023-02-23T10:06:14.771Z,24.64
2023-02-23T10:09:02.704Z,24.82
2023-02-23T10:11:58.297Z,27.12
2023-02-23T10:14:51.193Z,26.98
2023-02-23T10:17:49.637Z,25.34
2023-02-23T10:20:36.059Z,24.59
2023-02-23T10:23:13.460Z,23.54
2023-02-23T10:26:07.880Z,23.43
2023-02-23T10:28:37.618Z,23.84
2023-02-23T10:31:24.366Z,23.05
2023-02-23T10:33:55.628Z,23.96
2023-02-23T10:36:46.601Z,24.06
2023-02-23T10:39:14.768Z,24.17
2023-02-23T10:41:43.652Z,24.48
2023-02-23T10:44:20.242Z,23.89
2023-02-23T10:46:55.737Z,24.31
2023-02-23T10:49:30.880Z,23.70
2023-02-23T10:52:03.118Z,24.53
2023-02-23T10:54:39.616Z,23.82
2023-02-23T10:57:09.052Z,23.38
2023-02-23T10:59:37.173Z,22.86
2023-02-23T11:02:38.723Z,22.12
2023-02-23T11:05:07.439Z,23.59
2023-02-23T11:07:35.421Z,22.87
2023-02-23T11:10:27.643Z,24.00
2023-02-23T11:12:55.640Z,26.01
2023-02-23T11:15:46.327Z,26.90
2023-02-23T11:18:26.339Z,27.69
2023-02-23T11:20:55.815Z,27.87
2023-02-23T11:23:29.806Z,27.36
2023-02-23T11:26:00.528Z,27.04
2023-02-23T11:28:35.242Z,26.79
2023-02-23T11:31:14.065Z,25.36
2023-02-23T11:33:42.664Z,25.68
2023-02-23T11:36:27.051Z,25.68
2023-02-23T11:39:02.807Z,26.34
2023-02-23T11:41:33.061Z,26.00
2023-02-23T11:44:05.584Z,25.96
2023-02-23T11:46:38.152Z,25.74
2023-02-23T11:49:07.469Z,26.55
2023-02-23T11:51:49.855Z,27.53
2023-02-23T11:54:36.355Z,27.89
2023-02-23T11:57:04.787Z,29.15
2023-02-23T11:59:45.496Z,30.09
2023-02-23T12:02:23.294Z,31.08
2023-02-23T12:05:21.073Z,31.26
2023-02-23T12:08:01.669Z,31.57
2023-02-23T12:10:38.135Z,31.06
2023-02-23T12:13:07.652Z,31.35
2023-02-23T12:15:44.062Z,31.62
2023-02-23T12:18:33.754Z,31.33
2023-02-23T12:21:17.777Z,31.34
2023-02-23T12:23:50.418Z,31.45
2023-02-23T12:26:22.944Z,31.35
2023-02-23T12:28:59.995Z,31.94
2023-02-23T12:31:48.538Z,32.82
2023-02-23T12:34:39.536Z,33.00
2023-02-23T12:37:16.465Z,32.80
2023-02-23T12:39:51.842Z,33.37
2023-02-23T12:42:43.149Z,34.54
2023-02-23T12:45:23.749Z,35.17
2023-02-23T12:48:27.311Z,36.09
2023-02-23T12:51:02.452Z,36.50
2023-02-23T12:53:53.144Z,36.85
2023-02-23T12:56:50.025Z,37.00
2023-02-23T12:59:47.679Z,37.75
2023-02-23T13:02:53.027Z,38.00
2023-02-23T13:05:24.691Z,37.91
2023-02-23T13:08:20.940Z,37.66
2023-02-23T13:11:11.945Z,38.38
2023-02-23T13:14:09.487Z,38.12
2023-02-23T13:16:46.217Z,37.99
2023-02-23T13:19:22.664Z,38.11
2023-02-23T13:22:09.587Z,38.28
2023-02-23T13:24:43.836Z,38.71
2023-02-23T13:27:34.469Z,39.07
2023-02-23T13:30:04.196Z,39.75
2023-02-23T13:32:34.643Z,40.95
2023-02-23T13:35:09.684Z,41.87
2023-02-23T13:37:51.108Z,42.00
2023-02-23T13:40:41.228Z,42.48
2023-02-23T13:43:37.228Z,42.29
2023-02-23T13:46:26.522Z,42.61
2023-02-23T13:49:04.603Z,43.75
2023-02-23T13:51:52.132Z,43.67
2023-02-23T13:54:31.088Z,44.13
2023-02-23T13:57:02.786Z,43.96
2023-02-23T13:59:38.038Z,44.13
2023-02-23T14:02:31.141Z,44.54
2023-02-23T14:05:16.225Z,45.29
2023-02-23T14:07:47.957Z,44.86
2023-02-23T14:10:28.876Z,45.34
2023-02-23T14:13:09.105Z,45.99
2023-02-23T14:15:40.699Z,45.92
2023-02-23T14:18:17.898Z,46.08
2023-02-23T14:21:11.158Z,46.51
2023-02-23T14:23:48.407Z,46.49
2023-02-23T14:26:19.178Z,47.04
2023-02-23T14:29:09.008Z,47.46
2023-02-23T14:31:38.450Z,47.46
2023-02-23T14:34:09.481Z,48.05
2023-02-23T14:36:43.532Z,48.34
2023-02-23T14:39:24.358Z,48.01
2023-02-23T14:42:06.724Z,48.49
2023-02-23T14:44:34.915Z,49.22
2023-02-23T14:47:18.902Z,48.86
2023-02-23T14:49:57.364Z,49.05
2023-02-23T14:52:41.729Z,49.39
2023-02-23T14:55:12.544Z,49.38
2023-02-23T14:57:43.839Z,49.11
2023-02-23T15:00:23.401Z,49.45
2023-02-23T15:02:58.683Z,49.77
2023-02-23T15:05:31.099Z,49.75
2023-02-23T15:08:01.568Z,49.64
2023-02-23T15:10:35.825Z,50.27
2023-02-23T15:13:29.015Z,49.81
2023-02-23T15:15:58.613Z,50.21
2023-02-23T15:18:39.043Z,49.87
2023-02-23T15:21:14.170Z,50.39
2023-02-23T15:23:45.819Z,50.65
2023-02-23T15:26:41.957Z,51.34
2023-02-23T15:29:18.829Z,51.41
2023-02-23T15:31:52.240Z,52.02
2023-02-23T15:34:27.130Z,51.99
2023-02-23T15:37:01.979Z,51.40
2023-02-23T15:39:40.135Z,52.00
2023-02-23T15:42:15.675Z,52.77
2023-02-23T15:44:45.566Z,52.07
2023-02-23T15:47:22.989Z,52.30
2023-02-23T15:49:51.458Z,52.51
2023-02-23T15:52:24.347Z,52.71
2023-02-23T15:55:00.708Z,53.22
2023-02-23T15:57:44.390Z,52.91
2023-02-23T16:00:20.258Z,52.81
2023-02-23T16:02:49.236Z,53.31
2023-02-23T16:05:25.872Z,53.70
2023-02-23T16:08:07.923Z,53.75
2023-02-23T16:10:47.458Z,54.36
2023-02-23T16:13:21.598Z,54.74
2023-02-23T16:15:51.040Z,55.46
2023-02-23T16:18:23.463Z,55.87
2023-02-23T16:20:58.019Z,55.98
2023-02-23T16:23:42.014Z,57.11
2023-02-23T16:26:18.562Z,57.85
2023-02-23T16:28:47.682Z,58.51
2023-02-23T16:31:22.825Z,59.56
2023-02-23T16:34:00.409Z,59.65
2023-02-23T16:36:38.930Z,60.17
2023-02-23T16:39:12.900Z,60.27
2023-02-23T16:41:41.017Z,60.65
2023-02-23T16:44:18.765Z,61.44
2023-02-23T16:46:56.294Z,61.57
2023-02-23T16:49:24.620Z,61.68
2023-02-23T16:51:52.533Z,62.29
2023-02-23T16:54:20.934Z,62.69
2023-02-23T16:56:50.905Z,63.37
2023-02-23T16:59:19.479Z,63.57
2023-02-23T17:01:47.837Z,63.63
2023-02-23T17:04:22.633Z,63.92
2023-02-23T17:06:58.376Z,64.39
2023-02-23T17:09:27.838Z,64.58
2023-02-23T17:11:57.564Z,65.22
2023-02-23T17:14:28.527Z,65.64
2023-02-23T17:16:57.049Z,65.79
2023-02-23T17:19:26.089Z,65.73
2023-02-23T17:21:55.101Z,65.65
2023-02-23T17:24:26.389Z,66.47
2023-02-23T17:26:55.902Z,66.77
2023-02-23T17:29:24.890Z,67.71
2023-02-23T17:31:53.447Z,67.38
2023-02-23T17:34:21.984Z,67.83
2023-02-23T17:36:50.430Z,67.59
2023-02-23T17:39:19.119Z,67.67
2023-02-23T17:41:47.481Z,67.96
2023-02-23T17:44:16.433Z,68.15
2023-02-23T17:46:45.199Z,68.15
2023-02-23T17:49:13.500Z,68.05
2023-02-23T17:51:42.157Z,68.12
2023-02-23T17:54:10.734Z,68.32
2023-02-23T17:56:39.726Z,69.00
2023-02-23T17:59:08.396Z,68.66
2023-02-23T18:01:37.148Z,68.85
2023-02-23T18:04:05.563Z,69.17
2023-02-23T18:06:33.918Z,69.41
2023-02-23T18:09:04.876Z,69.85
2023-02-23T18:11:34.900Z,69.95
2023-02-23T18:14:04.186Z,71.16
2023-02-23T18:16:34.184Z,71.25
2023-02-23T18:19:02.831Z,71.54
2023-02-23T18:21:34.558Z,71.66
2023-02-23T18:24:03.020Z,71.71
2023-02-23T18:26:31.863Z,71.66
2023-02-23T18:29:00.120Z,72.49
2023-02-23T18:31:28.934Z,72.17
2023-02-23T18:34:01.727Z,72.08
2023-02-23T18:36:32.370Z,73.37
2023-02-23T18:39:01.582Z,73.99
2023-02-23T18:41:33.422Z,73.83
2023-02-23T18:44:04.338Z,74.07
2023-02-23T18:46:33.712Z,75.09
2023-02-23T18:49:02.489Z,76.47
2023-02-23T18:51:31.093Z,76.87
2023-02-23T18:54:00.471Z,76.70
2023-02-23T18:56:29.205Z,76.43
2023-02-23T18:59:01.921Z,76.46
2023-02-23T19:01:33.634Z,76.39
2023-02-23T19:04:03.706Z,76.29
2023-02-23T19:06:33.596Z,77.18
2023-02-23T19:09:04.607Z,77.28
2023-02-23T19:11:34.974Z,76.77
2023-02-23T19:14:06.788Z,77.69
2023-02-23T19:16:35.680Z,77.62
2023-02-23T19:19:06.127Z,77.70
2023-02-23T19:21:36.242Z,78.38
2023-02-23T19:24:06.006Z,78.74
2023-02-23T19:26:36.395Z,78.39
2023-02-23T19:29:05.265Z,78.48
2023-02-23T19:31:34.692Z,78.39
2023-02-23T19:34:05.367Z,78.99
2023-02-23T19:36:34.036Z,78.67
2023-02-23T19:39:11.220Z,79.29
2023-02-23T19:41:40.208Z,79.30
2023-02-23T19:44:08.152Z,79.08
2023-02-23T19:46:37.627Z,78.86
2023-02-23T19:49:06.515Z,78.98
2023-02-23T19:51:35.360Z,79.08
2023-02-23T19:54:03.788Z,79.15
2023-02-23T19:56:31.731Z,78.97
2023-02-23T19:59:02.575Z,79.46
2023-02-23T20:01:31.394Z,79.93
2023-02-23T20:04:06.603Z,79.39
2023-02-23T20:06:41.301Z,80.02
2023-02-23T20:09:09.911Z,79.49
2023-02-23T20:11:37.961Z,79.95
2023-02-23T20:14:08.213Z,79.88
2023-02-23T20:16:36.846Z,80.91
2023-02-23T20:19:07.886Z,80.64
2023-02-23T20:21:37.357Z,80.50
2023-02-23T20:24:06.326Z,81.43
2023-02-23T20:26:37.396Z,82.06
2023-02-23T20:29:11.377Z,81.44
2023-02-23T20:31:45.155Z,81.62
2023-02-23T20:34:13.646Z,82.95
2023-02-23T20:36:42.136Z,82.08
2023-02-23T20:39:10.983Z,83.06
2023-02-23T20:41:44.386Z,82.97
2023-02-23T20:44:13.655Z,83.56
2023-02-23T20:46:44.080Z,84.63
2023-02-23T20:49:18.611Z,85.53
2023-02-23T20:51:48.796Z,84.95
2023-02-23T20:54:17.575Z,84.40
2023-02-23T20:57:08.405Z,84.48
2023-02-23T20:59:51.349Z,83.94
2023-02-23T21:02:19.395Z,85.51
2023-02-23T21:04:47.378Z,84.89
2023-02-23T21:07:15.524Z,84.61
2023-02-23T21:09:43.827Z,85.58
2023-02-23T21:12:11.937Z,85.78
2023-02-23T21:14:40.104Z,85.26
2023-02-23T21:17:10.077Z,84.78
2023-02-23T21:19:39.148Z,85.21
2023-02-23T21:22:07.107Z,85.40
2023-02-23T21:24:41.254Z,85.06
2023-02-23T21:27:13.184Z,84.75
2023-02-23T21:29:42.167Z,85.84
2023-02-23T21:32:14.297Z,85.54
2023-02-23T21:34:43.942Z,85.54
2023-02-23T21:37:12.086Z,86.57
2023-02-23T21:39:41.170Z,87.96
2023-02-23T21:42:09.188Z,87.65
2023-02-23T21:44:37.524Z,86.83
2023-02-23T21:47:07.411Z,87.88
2023-02-23T21:49:36.370Z,88.02
2023-02-23T21:52:04.572Z,87.71
2023-02-23T21:54:36.768Z,87.43
2023-02-23T21:57:04.986Z,87.30
2023-02-23T21:59:35.668Z,86.56
2023-02-23T22:02:03.988Z,86.75
2023-02-23T22:04:31.864Z,86.81
2023-02-23T22:07:00.140Z,86.70
2023-02-23T22:09:28.226Z,86.13
2023-02-23T22:11:56.130Z,87.30
2023-02-23T22:14:23.998Z,87.74
2023-02-23T22:16:52.047Z,87.56
2023-02-23T22:19:20.058Z,88.17
2023-02-23T22:21:48.683Z,87.87
2023-02-23T22:24:17.475Z,88.08
2023-02-23T22:26:54.430Z,88.41
2023-02-23T22:29:24.648Z,88.01
2023-02-23T22:31:52.982Z,88.14
2023-02-23T22:34:21.124Z,87.69
2023-02-23T22:36:50.288Z,88.50
2023-02-23T22:39:19.059Z,88.25
2023-02-23T22:41:48.246Z,88.53
2023-02-23T22:44:18.898Z,89.27
2023-02-23T22:46:48.878Z,89.00
2023-02-23T22:49:20.147Z,88.93
2023-02-23T22:51:48.369Z,88.39
2023-02-23T22:54:17.634Z,87.94
2023-02-23T22:56:47.113Z,88.51
2023-02-23T22:59:17.824Z,89.71
2023-02-23T23:01:47.837Z,90.09
2023-02-23T23:04:15.730Z,89.64
2023-02-23T23:06:44.076Z,90.49
2023-02-23T23:09:13.096Z,90.61
2023-02-23T23:11:44.638Z,90.10
2023-02-23T23:14:12.773Z,90.40
2023-02-23T23:16:50.154Z,89.81
2023-02-23T23:19:25.962Z,88.91
2023-02-23T23:21:55.832Z,88.17
2023-02-23T23:24:25.239Z,88.12
2023-02-23T23:26:55.694Z,87.55
2023-02-23T23:29:25.974Z,86.18
2023-02-23T23:31:57.291Z,86.32
2023-02-23T23:34:25.554Z,86.28
2023-02-23T23:36:55.619Z,86.87
2023-02-23T23:39:26.459Z,86.08
2023-02-23T23:41:56.175Z,86.30
2023-02-23T23:44:30.121Z,84.98
2023-02-23T23:46:58.630Z,84.65
2023-02-23T23:49:26.796Z,84.12
2023-02-23T23:51:59.043Z,83.34
2023-02-23T23:54:32.843Z,83.68
2023-02-23T23:57:04.067Z,82.66
2023-02-23T23:59:34.061Z,83.44
